sensor_id;sensor_type;location;lat;lon;timestamp;P1;durP1;ratioP1;P2;durP2;ratioP2
21084;SDS011;72320;50.082;20.000;2024-01-15T00:00:45;4.10;;;3.40;;
21084;SDS011;72320;50.082;20.000;2024-01-15T00:03:12;4.20;;;3.10;;
21084;SDS011;72320;50.082;20.000;2024-01-15T00:05:38;3.90;;;2.70;;
21084;SDS011;72320;50.082;20.000;2024-01-15T00:08:04;4.10;;;3.40;;
21084;SDS011;72320;50.082;20.000;2024-01-15T00:10:30;3.20;;;2.90;;
21084;SDS011;72320;50.082;20.000;2024-01-15T00:12:56;3.40;;;3.10;;
21084;SDS011;72320;50.082;20.000;2024-01-15T00:15:22;4.50;;;3.30;;
21084;SDS011;72320;50.082;20.000;2024-01-15T00:17:49;3.60;;;2.50;;
21084;SDS011;72320;50.082;20.000;2024-01-15T00:20:15;3.70;;;3.20;;
21084;SDS011;72320;50.082;20.000;2024-01-15T00:22:42;4.90;;;3.10;;
21084;SDS011;72320;50.082;20.000;2024-01-15T00:25:08;2.90;;;2.60;;
21084;SDS011;72320;50.082;20.000;2024-01-15T00:27:34;3.10;;;2.90;;
21084;SDS011;72320;50.082;20.000;2024-01-15T00:30:01;5.70;;;2.90;;
21084;SDS011;72320;50.082;20.000;2024-01-15T00:32:30;4.20;;;2.80;;
21084;SDS011;72320;50.082;20.000;2024-01-15T00:34:56;5.80;;;3.20;;
21084;SDS011;72320;50.082;20.000;2024-01-15T00:37:23;5.20;;;3.40;;
21084;SDS011;72320;50.082;20.000;2024-01-15T00:39:49;3.40;;;3.00;;
21084;SDS011;72320;50.082;20.000;2024-01-15T00:42:15;2.70;;;2.40;;
21084;SDS011;72320;50.082;20.000;2024-01-15T00:44:42;3.60;;;2.80;;
21084;SDS011;72320;50.082;20.000;2024-01-15T00:47:08;4.40;;;3.20;;
21084;SDS011;72320;50.082;20.000;2024-01-15T00:49:33;2.70;;;2.40;;
21084;SDS011;72320;50.082;20.000;2024-01-15T00:51:59;3.90;;;2.90;;
21084;SDS011;72320;50.082;20.000;2024-01-15T00:54:26;3.10;;;2.40;;
21084;SDS011;72320;50.082;20.000;2024-01-15T00:56:52;3.50;;;3.00;;
21084;SDS011;72320;50.082;20.000;2024-01-15T00:59:18;5.50;;;2.80;;
21084;SDS011;72320;50.082;20.000;2024-01-15T01:01:46;3.60;;;2.70;;
21084;SDS011;72320;50.082;20.000;2024-01-15T01:04:12;3.30;;;2.80;;
21084;SDS011;72320;50.082;20.000;2024-01-15T01:06:38;3.50;;;2.70;;
21084;SDS011;72320;50.082;20.000;2024-01-15T01:09:04;2.60;;;2.30;;
21084;SDS011;72320;50.082;20.000;2024-01-15T01:11:30;3.70;;;2.70;;
21084;SDS011;72320;50.082;20.000;2024-01-15T01:13:56;2.90;;;2.60;;
21084;SDS011;72320;50.082;20.000;2024-01-15T01:16:22;3.40;;;3.00;;
21084;SDS011;72320;50.082;20.000;2024-01-15T01:18:49;3.20;;;2.90;;
21084;SDS011;72320;50.082;20.000;2024-01-15T01:21:14;4.00;;;3.00;;
21084;SDS011;72320;50.082;20.000;2024-01-15T01:23:40;2.90;;;2.40;;
21084;SDS011;72320;50.082;20.000;2024-01-15T01:26:06;2.90;;;2.50;;
21084;SDS011;72320;50.082;20.000;2024-01-15T01:28:32;3.60;;;2.90;;
21084;SDS011;72320;50.082;20.000;2024-01-15T01:30:59;2.90;;;2.60;;
21084;SDS011;72320;50.082;20.000;2024-01-15T01:33:25;3.30;;;2.80;;
21084;SDS011;72320;50.082;20.000;2024-01-15T01:35:51;2.80;;;2.20;;
21084;SDS011;72320;50.082;20.000;2024-01-15T01:38:17;3.40;;;3.00;;
21084;SDS011;72320;50.082;20.000;2024-01-15T01:40:43;3.70;;;3.00;;
21084;SDS011;72320;50.082;20.000;2024-01-15T01:43:09;2.80;;;2.60;;
21084;SDS011;72320;50.082;20.000;2024-01-15T01:45:36;3.60;;;2.70;;
21084;SDS011;72320;50.082;20.000;2024-01-15T01:48:03;3.00;;;2.40;;
21084;SDS011;72320;50.082;20.000;2024-01-15T01:50:31;4.30;;;2.70;;
21084;SDS011;72320;50.082;20.000;2024-01-15T01:52:57;3.60;;;2.60;;
21084;SDS011;72320;50.082;20.000;2024-01-15T01:55:26;3.10;;;2.60;;
21084;SDS011;72320;50.082;20.000;2024-01-15T01:57:55;3.70;;;2.80;;
21084;SDS011;72320;50.082;20.000;2024-01-15T02:00:22;3.70;;;2.80;;
21084;SDS011;72320;50.082;20.000;2024-01-15T02:02:48;2.70;;;2.40;;
21084;SDS011;72320;50.082;20.000;2024-01-15T02:05:14;2.90;;;2.60;;
21084;SDS011;72320;50.082;20.000;2024-01-15T02:07:45;3.10;;;2.90;;
21084;SDS011;72320;50.082;20.000;2024-01-15T02:10:11;3.00;;;2.50;;
21084;SDS011;72320;50.082;20.000;2024-01-15T02:12:37;4.80;;;2.80;;
21084;SDS011;72320;50.082;20.000;2024-01-15T02:15:04;2.90;;;2.30;;
21084;SDS011;72320;50.082;20.000;2024-01-15T02:17:30;2.50;;;2.30;;
21084;SDS011;72320;50.082;20.000;2024-01-15T02:19:56;4.10;;;2.70;;
21084;SDS011;72320;50.082;20.000;2024-01-15T02:22:22;3.60;;;2.60;;
21084;SDS011;72320;50.082;20.000;2024-01-15T02:24:48;2.40;;;2.20;;
21084;SDS011;72320;50.082;20.000;2024-01-15T02:27:15;2.50;;;2.10;;
21084;SDS011;72320;50.082;20.000;2024-01-15T02:29:41;2.50;;;2.30;;
21084;SDS011;72320;50.082;20.000;2024-01-15T02:32:09;2.40;;;2.30;;
21084;SDS011;72320;50.082;20.000;2024-01-15T02:34:34;2.90;;;2.40;;
21084;SDS011;72320;50.082;20.000;2024-01-15T02:37:01;2.60;;;2.30;;
21084;SDS011;72320;50.082;20.000;2024-01-15T02:39:27;3.80;;;2.50;;
21084;SDS011;72320;50.082;20.000;2024-01-15T02:41:54;3.20;;;2.10;;
21084;SDS011;72320;50.082;20.000;2024-01-15T02:44:23;7.40;;;2.40;;
21084;SDS011;72320;50.082;20.000;2024-01-15T02:46:49;3.10;;;2.40;;
21084;SDS011;72320;50.082;20.000;2024-01-15T02:49:14;2.40;;;2.20;;
21084;SDS011;72320;50.082;20.000;2024-01-15T02:51:41;2.50;;;1.90;;
21084;SDS011;72320;50.082;20.000;2024-01-15T02:54:07;2.60;;;2.40;;
21084;SDS011;72320;50.082;20.000;2024-01-15T02:56:33;2.00;;;1.80;;
21084;SDS011;72320;50.082;20.000;2024-01-15T02:58:59;2.30;;;2.10;;
21084;SDS011;72320;50.082;20.000;2024-01-15T03:01:25;2.70;;;2.50;;
21084;SDS011;72320;50.082;20.000;2024-01-15T03:03:51;3.30;;;2.70;;
21084;SDS011;72320;50.082;20.000;2024-01-15T03:06:17;2.70;;;2.50;;
21084;SDS011;72320;50.082;20.000;2024-01-15T03:08:43;2.30;;;2.10;;
21084;SDS011;72320;50.082;20.000;2024-01-15T03:11:08;2.80;;;2.50;;
21084;SDS011;72320;50.082;20.000;2024-01-15T03:13:36;3.40;;;2.60;;
21084;SDS011;72320;50.082;20.000;2024-01-15T03:16:05;3.80;;;1.90;;
21084;SDS011;72320;50.082;20.000;2024-01-15T03:18:31;2.30;;;2.20;;
21084;SDS011;72320;50.082;20.000;2024-01-15T03:20:58;2.70;;;2.20;;
21084;SDS011;72320;50.082;20.000;2024-01-15T03:23:26;3.30;;;2.30;;
21084;SDS011;72320;50.082;20.000;2024-01-15T03:25:53;3.20;;;2.40;;
21084;SDS011;72320;50.082;20.000;2024-01-15T03:28:19;2.20;;;2.10;;
21084;SDS011;72320;50.082;20.000;2024-01-15T03:30:44;2.20;;;2.00;;
21084;SDS011;72320;50.082;20.000;2024-01-15T03:33:10;3.70;;;2.40;;
21084;SDS011;72320;50.082;20.000;2024-01-15T03:35:36;3.00;;;2.40;;
21084;SDS011;72320;50.082;20.000;2024-01-15T03:38:02;2.40;;;2.20;;
21084;SDS011;72320;50.082;20.000;2024-01-15T03:40:28;2.60;;;2.40;;
21084;SDS011;72320;50.082;20.000;2024-01-15T03:42:54;2.60;;;2.40;;
21084;SDS011;72320;50.082;20.000;2024-01-15T03:45:20;2.40;;;2.20;;
21084;SDS011;72320;50.082;20.000;2024-01-15T03:47:46;3.10;;;2.40;;
21084;SDS011;72320;50.082;20.000;2024-01-15T03:50:12;3.80;;;2.60;;
21084;SDS011;72320;50.082;20.000;2024-01-15T03:52:38;4.80;;;2.60;;
21084;SDS011;72320;50.082;20.000;2024-01-15T03:55:04;3.30;;;2.30;;
21084;SDS011;72320;50.082;20.000;2024-01-15T03:57:31;4.00;;;2.80;;
21084;SDS011;72320;50.082;20.000;2024-01-15T03:59:57;2.80;;;2.30;;
21084;SDS011;72320;50.082;20.000;2024-01-15T04:02:23;2.00;;;1.90;;
21084;SDS011;72320;50.082;20.000;2024-01-15T04:04:50;2.50;;;2.30;;
21084;SDS011;72320;50.082;20.000;2024-01-15T04:07:16;2.40;;;2.20;;
21084;SDS011;72320;50.082;20.000;2024-01-15T04:09:42;2.80;;;2.30;;
21084;SDS011;72320;50.082;20.000;2024-01-15T04:12:08;2.80;;;2.20;;
21084;SDS011;72320;50.082;20.000;2024-01-15T04:14:34;2.30;;;2.10;;
21084;SDS011;72320;50.082;20.000;2024-01-15T04:17:00;2.00;;;1.90;;
21084;SDS011;72320;50.082;20.000;2024-01-15T04:19:26;2.00;;;1.90;;
21084;SDS011;72320;50.082;20.000;2024-01-15T04:21:52;2.10;;;2.00;;
21084;SDS011;72320;50.082;20.000;2024-01-15T04:24:18;2.90;;;2.40;;
21084;SDS011;72320;50.082;20.000;2024-01-15T04:26:45;2.80;;;2.60;;
21084;SDS011;72320;50.082;20.000;2024-01-15T04:29:11;2.10;;;2.00;;
21084;SDS011;72320;50.082;20.000;2024-01-15T04:31:37;3.10;;;2.10;;
21084;SDS011;72320;50.082;20.000;2024-01-15T04:34:03;2.00;;;1.90;;
21084;SDS011;72320;50.082;20.000;2024-01-15T04:36:29;1.90;;;1.80;;
21084;SDS011;72320;50.082;20.000;2024-01-15T04:38:55;2.00;;;1.90;;
21084;SDS011;72320;50.082;20.000;2024-01-15T04:41:20;2.50;;;1.60;;
21084;SDS011;72320;50.082;20.000;2024-01-15T04:43:46;3.90;;;2.10;;
21084;SDS011;72320;50.082;20.000;2024-01-15T04:46:12;2.00;;;1.80;;
21084;SDS011;72320;50.082;20.000;2024-01-15T04:48:38;2.00;;;1.90;;
21084;SDS011;72320;50.082;20.000;2024-01-15T04:51:05;2.10;;;2.00;;
21084;SDS011;72320;50.082;20.000;2024-01-15T04:53:34;2.30;;;1.70;;
21084;SDS011;72320;50.082;20.000;2024-01-15T04:56:00;3.90;;;1.80;;
21084;SDS011;72320;50.082;20.000;2024-01-15T04:58:26;1.70;;;1.60;;
21084;SDS011;72320;50.082;20.000;2024-01-15T05:00:52;2.10;;;2.00;;
21084;SDS011;72320;50.082;20.000;2024-01-15T05:03:19;1.90;;;1.80;;
21084;SDS011;72320;50.082;20.000;2024-01-15T05:05:45;2.50;;;2.10;;
21084;SDS011;72320;50.082;20.000;2024-01-15T05:08:11;2.10;;;1.90;;
21084;SDS011;72320;50.082;20.000;2024-01-15T05:10:37;2.00;;;1.70;;
21084;SDS011;72320;50.082;20.000;2024-01-15T05:13:03;1.70;;;1.60;;
21084;SDS011;72320;50.082;20.000;2024-01-15T05:15:29;2.50;;;1.80;;
21084;SDS011;72320;50.082;20.000;2024-01-15T05:17:55;2.40;;;2.10;;
21084;SDS011;72320;50.082;20.000;2024-01-15T05:20:21;2.10;;;1.90;;
21084;SDS011;72320;50.082;20.000;2024-01-15T05:22:48;2.50;;;2.30;;
21084;SDS011;72320;50.082;20.000;2024-01-15T05:25:14;3.00;;;2.20;;
21084;SDS011;72320;50.082;20.000;2024-01-15T05:27:40;3.20;;;2.00;;
21084;SDS011;72320;50.082;20.000;2024-01-15T05:30:06;2.10;;;1.90;;
21084;SDS011;72320;50.082;20.000;2024-01-15T05:32:32;1.50;;;1.50;;
21084;SDS011;72320;50.082;20.000;2024-01-15T05:34:58;1.90;;;1.80;;
21084;SDS011;72320;50.082;20.000;2024-01-15T05:37:24;2.70;;;2.20;;
21084;SDS011;72320;50.082;20.000;2024-01-15T05:39:49;2.00;;;1.90;;
21084;SDS011;72320;50.082;20.000;2024-01-15T05:42:15;2.20;;;2.00;;
21084;SDS011;72320;50.082;20.000;2024-01-15T05:44:41;2.10;;;1.90;;
21084;SDS011;72320;50.082;20.000;2024-01-15T05:47:07;2.10;;;1.80;;
21084;SDS011;72320;50.082;20.000;2024-01-15T05:49:33;1.80;;;1.70;;
21084;SDS011;72320;50.082;20.000;2024-01-15T05:51:59;2.20;;;2.00;;
21084;SDS011;72320;50.082;20.000;2024-01-15T05:54:25;1.70;;;1.60;;
21084;SDS011;72320;50.082;20.000;2024-01-15T05:56:51;2.40;;;1.90;;
21084;SDS011;72320;50.082;20.000;2024-01-15T05:59:17;2.40;;;1.90;;
21084;SDS011;72320;50.082;20.000;2024-01-15T06:01:43;2.50;;;1.90;;
21084;SDS011;72320;50.082;20.000;2024-01-15T06:04:09;1.90;;;1.80;;
21084;SDS011;72320;50.082;20.000;2024-01-15T06:06:35;2.30;;;2.10;;
21084;SDS011;72320;50.082;20.000;2024-01-15T06:09:01;2.40;;;2.20;;
21084;SDS011;72320;50.082;20.000;2024-01-15T06:11:33;1.90;;;1.80;;
21084;SDS011;72320;50.082;20.000;2024-01-15T06:14:00;3.60;;;2.40;;
21084;SDS011;72320;50.082;20.000;2024-01-15T06:16:26;2.60;;;2.00;;
21084;SDS011;72320;50.082;20.000;2024-01-15T06:18:55;1.90;;;1.80;;
21084;SDS011;72320;50.082;20.000;2024-01-15T06:21:21;2.40;;;1.80;;
21084;SDS011;72320;50.082;20.000;2024-01-15T06:23:47;2.50;;;2.20;;
21084;SDS011;72320;50.082;20.000;2024-01-15T06:26:13;3.00;;;2.50;;
21084;SDS011;72320;50.082;20.000;2024-01-15T06:28:39;2.20;;;2.10;;
21084;SDS011;72320;50.082;20.000;2024-01-15T06:31:06;3.20;;;2.80;;
21084;SDS011;72320;50.082;20.000;2024-01-15T06:33:32;3.90;;;2.00;;
21084;SDS011;72320;50.082;20.000;2024-01-15T06:35:58;2.20;;;1.90;;
21084;SDS011;72320;50.082;20.000;2024-01-15T06:38:24;3.20;;;2.10;;
21084;SDS011;72320;50.082;20.000;2024-01-15T06:40:51;2.40;;;2.20;;
21084;SDS011;72320;50.082;20.000;2024-01-15T06:43:17;2.30;;;2.10;;
21084;SDS011;72320;50.082;20.000;2024-01-15T06:45:44;2.70;;;2.20;;
21084;SDS011;72320;50.082;20.000;2024-01-15T06:48:10;2.10;;;1.90;;
21084;SDS011;72320;50.082;20.000;2024-01-15T06:50:40;2.60;;;2.40;;
21084;SDS011;72320;50.082;20.000;2024-01-15T06:53:06;1.90;;;1.80;;
21084;SDS011;72320;50.082;20.000;2024-01-15T06:55:32;4.10;;;2.40;;
21084;SDS011;72320;50.082;20.000;2024-01-15T06:57:58;2.10;;;2.00;;
21084;SDS011;72320;50.082;20.000;2024-01-15T07:00:24;3.10;;;2.40;;
21084;SDS011;72320;50.082;20.000;2024-01-15T07:02:50;2.50;;;2.30;;
21084;SDS011;72320;50.082;20.000;2024-01-15T07:05:16;3.00;;;2.20;;
21084;SDS011;72320;50.082;20.000;2024-01-15T07:07:41;2.70;;;2.20;;
21084;SDS011;72320;50.082;20.000;2024-01-15T07:10:07;2.20;;;1.90;;
21084;SDS011;72320;50.082;20.000;2024-01-15T07:12:33;2.30;;;2.10;;
21084;SDS011;72320;50.082;20.000;2024-01-15T07:15:00;3.50;;;2.30;;
21084;SDS011;72320;50.082;20.000;2024-01-15T07:17:27;3.90;;;2.30;;
21084;SDS011;72320;50.082;20.000;2024-01-15T07:19:53;2.20;;;2.10;;
21084;SDS011;72320;50.082;20.000;2024-01-15T07:22:20;2.60;;;2.40;;
21084;SDS011;72320;50.082;20.000;2024-01-15T07:24:46;2.40;;;2.20;;
21084;SDS011;72320;50.082;20.000;2024-01-15T07:27:12;3.00;;;2.50;;
21084;SDS011;72320;50.082;20.000;2024-01-15T07:29:38;2.80;;;2.60;;
21084;SDS011;72320;50.082;20.000;2024-01-15T07:32:04;2.40;;;2.20;;
21084;SDS011;72320;50.082;20.000;2024-01-15T07:34:31;3.40;;;2.30;;
21084;SDS011;72320;50.082;20.000;2024-01-15T07:36:57;2.70;;;2.30;;
21084;SDS011;72320;50.082;20.000;2024-01-15T07:39:23;2.90;;;2.30;;
21084;SDS011;72320;50.082;20.000;2024-01-15T07:41:51;2.20;;;2.10;;
21084;SDS011;72320;50.082;20.000;2024-01-15T07:44:17;2.10;;;2.00;;
21084;SDS011;72320;50.082;20.000;2024-01-15T07:46:47;2.90;;;2.30;;
21084;SDS011;72320;50.082;20.000;2024-01-15T07:49:13;2.70;;;2.50;;
21084;SDS011;72320;50.082;20.000;2024-01-15T07:51:40;2.90;;;2.40;;
21084;SDS011;72320;50.082;20.000;2024-01-15T07:54:06;3.70;;;2.30;;
21084;SDS011;72320;50.082;20.000;2024-01-15T07:56:33;3.80;;;2.90;;
21084;SDS011;72320;50.082;20.000;2024-01-15T07:58:59;6.80;;;2.50;;
21084;SDS011;72320;50.082;20.000;2024-01-15T08:01:25;4.10;;;2.50;;
21084;SDS011;72320;50.082;20.000;2024-01-15T08:03:51;3.50;;;2.80;;
21084;SDS011;72320;50.082;20.000;2024-01-15T08:06:17;2.80;;;2.50;;
21084;SDS011;72320;50.082;20.000;2024-01-15T08:08:43;3.40;;;2.90;;
21084;SDS011;72320;50.082;20.000;2024-01-15T08:11:09;2.40;;;2.20;;
21084;SDS011;72320;50.082;20.000;2024-01-15T08:13:35;2.90;;;2.60;;
21084;SDS011;72320;50.082;20.000;2024-01-15T08:16:01;2.90;;;2.60;;
21084;SDS011;72320;50.082;20.000;2024-01-15T08:18:27;2.70;;;2.50;;
21084;SDS011;72320;50.082;20.000;2024-01-15T08:20:53;2.90;;;2.70;;
21084;SDS011;72320;50.082;20.000;2024-01-15T08:23:19;2.80;;;2.60;;
21084;SDS011;72320;50.082;20.000;2024-01-15T08:25:45;3.90;;;2.90;;
21084;SDS011;72320;50.082;20.000;2024-01-15T08:28:11;3.40;;;2.40;;
21084;SDS011;72320;50.082;20.000;2024-01-15T08:30:37;3.40;;;2.50;;
21084;SDS011;72320;50.082;20.000;2024-01-15T08:33:03;3.10;;;2.50;;
21084;SDS011;72320;50.082;20.000;2024-01-15T08:35:30;4.20;;;2.60;;
21084;SDS011;72320;50.082;20.000;2024-01-15T08:37:55;3.10;;;2.70;;
21084;SDS011;72320;50.082;20.000;2024-01-15T08:40:23;6.30;;;3.00;;
21084;SDS011;72320;50.082;20.000;2024-01-15T08:42:49;3.00;;;2.50;;
21084;SDS011;72320;50.082;20.000;2024-01-15T08:45:15;3.30;;;2.90;;
21084;SDS011;72320;50.082;20.000;2024-01-15T08:47:41;4.30;;;3.00;;
21084;SDS011;72320;50.082;20.000;2024-01-15T08:50:07;2.80;;;2.60;;
21084;SDS011;72320;50.082;20.000;2024-01-15T08:52:36;3.00;;;2.70;;
21084;SDS011;72320;50.082;20.000;2024-01-15T08:55:03;3.40;;;2.60;;
21084;SDS011;72320;50.082;20.000;2024-01-15T08:57:30;2.70;;;2.50;;
21084;SDS011;72320;50.082;20.000;2024-01-15T08:59:56;4.50;;;3.10;;
21084;SDS011;72320;50.082;20.000;2024-01-15T09:02:22;5.60;;;3.10;;
21084;SDS011;72320;50.082;20.000;2024-01-15T09:04:48;3.90;;;3.10;;
21084;SDS011;72320;50.082;20.000;2024-01-15T09:07:14;4.40;;;2.40;;
21084;SDS011;72320;50.082;20.000;2024-01-15T09:09:40;2.20;;;2.10;;
21084;SDS011;72320;50.082;20.000;2024-01-15T09:12:08;4.40;;;3.20;;
21084;SDS011;72320;50.082;20.000;2024-01-15T09:14:34;9.90;;;3.10;;
21084;SDS011;72320;50.082;20.000;2024-01-15T09:17:01;3.40;;;3.10;;
21084;SDS011;72320;50.082;20.000;2024-01-15T09:19:29;2.90;;;2.50;;
21084;SDS011;72320;50.082;20.000;2024-01-15T09:21:55;3.20;;;2.80;;
21084;SDS011;72320;50.082;20.000;2024-01-15T09:24:21;5.40;;;3.20;;
21084;SDS011;72320;50.082;20.000;2024-01-15T09:26:47;3.40;;;2.70;;
21084;SDS011;72320;50.082;20.000;2024-01-15T09:29:13;5.20;;;3.20;;
21084;SDS011;72320;50.082;20.000;2024-01-15T09:31:41;4.10;;;3.70;;
21084;SDS011;72320;50.082;20.000;2024-01-15T09:34:07;4.90;;;3.20;;
21084;SDS011;72320;50.082;20.000;2024-01-15T09:36:39;4.40;;;3.40;;
21084;SDS011;72320;50.082;20.000;2024-01-15T09:39:09;5.30;;;3.40;;
21084;SDS011;72320;50.082;20.000;2024-01-15T09:41:37;5.90;;;2.90;;
21084;SDS011;72320;50.082;20.000;2024-01-15T09:44:04;3.20;;;2.30;;
21084;SDS011;72320;50.082;20.000;2024-01-15T09:46:31;3.40;;;2.80;;
21084;SDS011;72320;50.082;20.000;2024-01-15T09:48:59;4.40;;;3.30;;
21084;SDS011;72320;50.082;20.000;2024-01-15T09:51:26;4.80;;;3.20;;
21084;SDS011;72320;50.082;20.000;2024-01-15T09:53:52;4.00;;;3.40;;
21084;SDS011;72320;50.082;20.000;2024-01-15T09:56:20;4.30;;;3.10;;
21084;SDS011;72320;50.082;20.000;2024-01-15T09:58:47;7.10;;;3.20;;
21084;SDS011;72320;50.082;20.000;2024-01-15T10:01:15;3.80;;;3.20;;
21084;SDS011;72320;50.082;20.000;2024-01-15T10:03:42;4.40;;;3.70;;
21084;SDS011;72320;50.082;20.000;2024-01-15T10:06:08;5.00;;;3.90;;
21084;SDS011;72320;50.082;20.000;2024-01-15T10:08:37;3.00;;;2.80;;
21084;SDS011;72320;50.082;20.000;2024-01-15T10:11:04;4.30;;;3.30;;
21084;SDS011;72320;50.082;20.000;2024-01-15T10:13:30;3.80;;;3.00;;
21084;SDS011;72320;50.082;20.000;2024-01-15T10:15:56;4.50;;;3.50;;
21084;SDS011;72320;50.082;20.000;2024-01-15T10:18:24;6.10;;;3.30;;
21084;SDS011;72320;50.082;20.000;2024-01-15T10:20:50;3.80;;;3.30;;
21084;SDS011;72320;50.082;20.000;2024-01-15T10:23:16;5.00;;;3.50;;
21084;SDS011;72320;50.082;20.000;2024-01-15T10:25:42;5.80;;;4.20;;
21084;SDS011;72320;50.082;20.000;2024-01-15T10:28:08;7.80;;;3.90;;
21084;SDS011;72320;50.082;20.000;2024-01-15T10:30:35;5.10;;;4.10;;
21084;SDS011;72320;50.082;20.000;2024-01-15T10:33:03;6.10;;;3.50;;
21084;SDS011;72320;50.082;20.000;2024-01-15T10:35:34;4.90;;;3.50;;
21084;SDS011;72320;50.082;20.000;2024-01-15T10:38:00;7.00;;;4.00;;
21084;SDS011;72320;50.082;20.000;2024-01-15T10:40:28;5.70;;;3.90;;
21084;SDS011;72320;50.082;20.000;2024-01-15T10:42:54;4.10;;;2.90;;
21084;SDS011;72320;50.082;20.000;2024-01-15T10:45:20;6.80;;;4.10;;
21084;SDS011;72320;50.082;20.000;2024-01-15T10:47:47;5.10;;;3.60;;
21084;SDS011;72320;50.082;20.000;2024-01-15T10:50:14;5.90;;;3.70;;
21084;SDS011;72320;50.082;20.000;2024-01-15T10:52:41;4.20;;;3.40;;
21084;SDS011;72320;50.082;20.000;2024-01-15T10:55:11;5.60;;;4.10;;
21084;SDS011;72320;50.082;20.000;2024-01-15T10:57:38;6.00;;;3.80;;
21084;SDS011;72320;50.082;20.000;2024-01-15T11:00:05;7.00;;;3.90;;
21084;SDS011;72320;50.082;20.000;2024-01-15T11:02:35;5.70;;;3.80;;
21084;SDS011;72320;50.082;20.000;2024-01-15T11:05:03;7.00;;;3.50;;
21084;SDS011;72320;50.082;20.000;2024-01-15T11:07:30;5.10;;;3.50;;
21084;SDS011;72320;50.082;20.000;2024-01-15T11:09:57;4.40;;;3.80;;
21084;SDS011;72320;50.082;20.000;2024-01-15T11:12:24;5.90;;;4.10;;
21084;SDS011;72320;50.082;20.000;2024-01-15T11:14:50;6.40;;;4.40;;
21084;SDS011;72320;50.082;20.000;2024-01-15T11:17:18;4.70;;;3.40;;
21084;SDS011;72320;50.082;20.000;2024-01-15T11:19:45;7.10;;;3.60;;
21084;SDS011;72320;50.082;20.000;2024-01-15T11:25:03;5.90;;;3.50;;
21084;SDS011;72320;50.082;20.000;2024-01-15T11:27:43;5.70;;;3.80;;
21084;SDS011;72320;50.082;20.000;2024-01-15T11:30:13;4.60;;;3.70;;
21084;SDS011;72320;50.082;20.000;2024-01-15T11:32:40;4.40;;;3.10;;
21084;SDS011;72320;50.082;20.000;2024-01-15T11:35:10;5.00;;;3.90;;
21084;SDS011;72320;50.082;20.000;2024-01-15T11:38:08;5.50;;;3.80;;
21084;SDS011;72320;50.082;20.000;2024-01-15T11:43:02;4.20;;;3.20;;
21084;SDS011;72320;50.082;20.000;2024-01-15T11:45:30;4.90;;;3.80;;
21084;SDS011;72320;50.082;20.000;2024-01-15T11:50:49;7.10;;;3.50;;
21084;SDS011;72320;50.082;20.000;2024-01-15T11:53:20;6.80;;;3.50;;
21084;SDS011;72320;50.082;20.000;2024-01-15T11:55:52;5.00;;;3.70;;
21084;SDS011;72320;50.082;20.000;2024-01-15T11:58:23;6.10;;;4.00;;
21084;SDS011;72320;50.082;20.000;2024-01-15T12:00:50;4.10;;;3.60;;
21084;SDS011;72320;50.082;20.000;2024-01-15T12:03:21;4.60;;;3.70;;
21084;SDS011;72320;50.082;20.000;2024-01-15T12:05:48;4.10;;;3.10;;
21084;SDS011;72320;50.082;20.000;2024-01-15T12:08:14;5.20;;;3.60;;
21084;SDS011;72320;50.082;20.000;2024-01-15T12:10:46;13.70;;;4.00;;
21084;SDS011;72320;50.082;20.000;2024-01-15T12:13:15;6.50;;;3.80;;
21084;SDS011;72320;50.082;20.000;2024-01-15T12:15:44;6.30;;;3.90;;
21084;SDS011;72320;50.082;20.000;2024-01-15T12:18:13;6.10;;;3.40;;
21084;SDS011;72320;50.082;20.000;2024-01-15T12:20:41;8.30;;;3.80;;
21084;SDS011;72320;50.082;20.000;2024-01-15T12:23:10;4.80;;;3.20;;
21084;SDS011;72320;50.082;20.000;2024-01-15T12:25:36;5.60;;;3.30;;
21084;SDS011;72320;50.082;20.000;2024-01-15T12:28:03;6.10;;;3.60;;
21084;SDS011;72320;50.082;20.000;2024-01-15T12:30:30;6.10;;;3.50;;
21084;SDS011;72320;50.082;20.000;2024-01-15T12:33:06;4.10;;;3.60;;
21084;SDS011;72320;50.082;20.000;2024-01-15T12:35:34;6.90;;;3.50;;
21084;SDS011;72320;50.082;20.000;2024-01-15T12:38:01;4.20;;;3.50;;
21084;SDS011;72320;50.082;20.000;2024-01-15T12:40:31;5.60;;;3.60;;
21084;SDS011;72320;50.082;20.000;2024-01-15T12:43:00;4.60;;;3.40;;
21084;SDS011;72320;50.082;20.000;2024-01-15T12:45:27;7.10;;;3.70;;
21084;SDS011;72320;50.082;20.000;2024-01-15T12:47:53;5.90;;;3.90;;
21084;SDS011;72320;50.082;20.000;2024-01-15T12:50:24;7.00;;;3.80;;
21084;SDS011;72320;50.082;20.000;2024-01-15T12:52:51;3.80;;;3.30;;
21084;SDS011;72320;50.082;20.000;2024-01-15T12:55:17;6.00;;;4.20;;
21084;SDS011;72320;50.082;20.000;2024-01-15T12:57:43;5.70;;;3.20;;
21084;SDS011;72320;50.082;20.000;2024-01-15T13:00:11;5.90;;;3.70;;
21084;SDS011;72320;50.082;20.000;2024-01-15T13:02:47;9.40;;;3.30;;
21084;SDS011;72320;50.082;20.000;2024-01-15T13:05:16;4.50;;;3.40;;
21084;SDS011;72320;50.082;20.000;2024-01-15T13:07:42;5.30;;;3.40;;
21084;SDS011;72320;50.082;20.000;2024-01-15T13:10:09;4.60;;;3.60;;
21084;SDS011;72320;50.082;20.000;2024-01-15T13:12:36;6.50;;;3.70;;
21084;SDS011;72320;50.082;20.000;2024-01-15T13:15:03;6.40;;;4.10;;
21084;SDS011;72320;50.082;20.000;2024-01-15T13:17:29;8.10;;;3.90;;
21084;SDS011;72320;50.082;20.000;2024-01-15T13:19:55;7.70;;;4.10;;
21084;SDS011;72320;50.082;20.000;2024-01-15T13:22:21;6.20;;;3.90;;
21084;SDS011;72320;50.082;20.000;2024-01-15T13:24:47;8.80;;;3.50;;
21084;SDS011;72320;50.082;20.000;2024-01-15T13:27:13;4.30;;;3.70;;
21084;SDS011;72320;50.082;20.000;2024-01-15T13:29:39;4.10;;;3.60;;
21084;SDS011;72320;50.082;20.000;2024-01-15T13:32:06;6.40;;;3.90;;
21084;SDS011;72320;50.082;20.000;2024-01-15T13:34:32;6.30;;;3.60;;
21084;SDS011;72320;50.082;20.000;2024-01-15T13:36:59;4.40;;;3.90;;
21084;SDS011;72320;50.082;20.000;2024-01-15T13:39:24;4.50;;;3.70;;
21084;SDS011;72320;50.082;20.000;2024-01-15T13:41:51;5.10;;;4.10;;
21084;SDS011;72320;50.082;20.000;2024-01-15T13:44:18;5.00;;;3.40;;
21084;SDS011;72320;50.082;20.000;2024-01-15T13:46:44;5.10;;;3.70;;
21084;SDS011;72320;50.082;20.000;2024-01-15T13:49:11;7.20;;;3.30;;
21084;SDS011;72320;50.082;20.000;2024-01-15T13:51:37;4.00;;;3.30;;
21084;SDS011;72320;50.082;20.000;2024-01-15T13:54:03;5.80;;;3.40;;
21084;SDS011;72320;50.082;20.000;2024-01-15T13:56:33;6.10;;;4.10;;
21084;SDS011;72320;50.082;20.000;2024-01-15T13:59:01;6.70;;;4.20;;
21084;SDS011;72320;50.082;20.000;2024-01-15T14:01:30;6.40;;;3.70;;
21084;SDS011;72320;50.082;20.000;2024-01-15T14:03:56;3.90;;;3.40;;
21084;SDS011;72320;50.082;20.000;2024-01-15T14:06:22;6.60;;;4.00;;
21084;SDS011;72320;50.082;20.000;2024-01-15T14:08:50;6.90;;;4.30;;
21084;SDS011;72320;50.082;20.000;2024-01-15T14:11:16;9.50;;;4.40;;
21084;SDS011;72320;50.082;20.000;2024-01-15T14:13:43;8.80;;;3.80;;
21084;SDS011;72320;50.082;20.000;2024-01-15T14:16:10;3.50;;;3.10;;
21084;SDS011;72320;50.082;20.000;2024-01-15T14:18:37;5.70;;;3.90;;
21084;SDS011;72320;50.082;20.000;2024-01-15T14:21:03;5.90;;;3.20;;
21084;SDS011;72320;50.082;20.000;2024-01-15T14:23:30;3.90;;;3.50;;
21084;SDS011;72320;50.082;20.000;2024-01-15T14:25:56;5.30;;;3.60;;
21084;SDS011;72320;50.082;20.000;2024-01-15T14:28:23;4.00;;;3.50;;
21084;SDS011;72320;50.082;20.000;2024-01-15T14:30:50;5.50;;;3.30;;
21084;SDS011;72320;50.082;20.000;2024-01-15T14:33:17;6.50;;;3.50;;
21084;SDS011;72320;50.082;20.000;2024-01-15T14:35:43;4.00;;;3.40;;
21084;SDS011;72320;50.082;20.000;2024-01-15T14:38:09;6.20;;;3.80;;